sensor_id;sensor_type;location;lat;lon;timestamp;pressure;altitude;pressure_sealevel;temperature;humidity
550;BME280;20066;48.764;9.176;2023-06-05T00:00:37;98249.50;;;19.87;38.12
550;BME280;20066;48.764;9.176;2023-06-05T00:03:05;98238.09;;;19.88;38.20
550;BME280;20066;48.764;9.176;2023-06-05T00:05:34;98253.94;;;19.93;37.87
550;BME280;20066;48.764;9.176;2023-06-05T00:08:02;98259.28;;;19.15;39.78
550;BME280;20066;48.764;9.176;2023-06-05T00:10:30;98260.50;;;18.76;40.49
550;BME280;20066;48.764;9.176;2023-06-05T00:12:58;98254.47;;;18.81;39.92
550;BME280;20066;48.764;9.176;2023-06-05T00:15:26;98256.66;;;19.12;39.66
550;BME280;20066;48.764;9.176;2023-06-05T00:17:54;98251.41;;;19.17;39.69
550;BME280;20066;48.764;9.176;2023-06-05T00:20:22;98250.13;;;18.97;40.29
550;BME280;20066;48.764;9.176;2023-06-05T00:22:51;98255.47;;;18.88;39.96
550;BME280;20066;48.764;9.176;2023-06-05T00:25:19;98254.69;;;19.12;40.09
550;BME280;20066;48.764;9.176;2023-06-05T00:27:47;98259.91;;;19.19;39.53
550;BME280;20066;48.764;9.176;2023-06-05T00:30:15;98255.69;;;18.80;40.78
550;BME280;20066;48.764;9.176;2023-06-05T00:32:42;98244.88;;;19.15;39.55
550;BME280;20066;48.764;9.176;2023-06-05T00:35:10;98248.38;;;19.03;39.97
550;BME280;20066;48.764;9.176;2023-06-05T00:37:38;98255.25;;;19.07;39.72
550;BME280;20066;48.764;9.176;2023-06-05T00:40:08;98256.44;;;19.19;39.85
550;BME280;20066;48.764;9.176;2023-06-05T00:42:36;98255.25;;;19.07;40.20
550;BME280;20066;48.764;9.176;2023-06-05T00:45:04;98248.09;;;19.35;39.68
550;BME280;20066;48.764;9.176;2023-06-05T00:47:32;98257.09;;;19.23;39.87
550;BME280;20066;48.764;9.176;2023-06-05T00:50:02;98258.75;;;19.08;39.96
550;BME280;20066;48.764;9.176;2023-06-05T00:52:31;98254.41;;;18.05;42.15
550;BME280;20066;48.764;9.176;2023-06-05T00:55:01;98256.38;;;18.84;40.51
550;BME280;20066;48.764;9.176;2023-06-05T00:57:30;98256.00;;;18.82;40.49
550;BME280;20066;48.764;9.176;2023-06-05T01:00:01;98254.41;;;18.98;40.16
550;BME280;20066;48.764;9.176;2023-06-05T01:02:33;98249.03;;;18.81;40.71
550;BME280;20066;48.764;9.176;2023-06-05T01:05:04;98250.53;;;18.44;41.79
550;BME280;20066;48.764;9.176;2023-06-05T01:07:32;98251.78;;;17.57;43.35
550;BME280;20066;48.764;9.176;2023-06-05T01:10:02;98257.88;;;17.77;43.50
550;BME280;20066;48.764;9.176;2023-06-05T01:12:35;98254.84;;;17.59;43.21
550;BME280;20066;48.764;9.176;2023-06-05T01:15:07;98256.16;;;18.25;41.63
550;BME280;20066;48.764;9.176;2023-06-05T01:17:35;98258.72;;;18.03;42.50
550;BME280;20066;48.764;9.176;2023-06-05T01:20:05;98255.91;;;17.78;43.04
550;BME280;20066;48.764;9.176;2023-06-05T01:22:36;98248.50;;;17.78;43.25
550;BME280;20066;48.764;9.176;2023-06-05T01:25:07;98251.78;;;17.57;43.58
550;BME280;20066;48.764;9.176;2023-06-05T01:27:40;98257.41;;;17.79;42.87
550;BME280;20066;48.764;9.176;2023-06-05T01:30:14;98255.91;;;17.78;43.06
550;BME280;20066;48.764;9.176;2023-06-05T01:32:49;98252.09;;;17.30;44.34
550;BME280;20066;48.764;9.176;2023-06-05T01:35:22;98255.34;;;17.99;42.90
550;BME280;20066;48.764;9.176;2023-06-05T01:37:56;98256.97;;;18.38;41.90
550;BME280;20066;48.764;9.176;2023-06-05T01:40:27;98258.66;;;18.19;41.83
550;BME280;20066;48.764;9.176;2023-06-05T01:42:55;98252.63;;;17.99;43.00
550;BME280;20066;48.764;9.176;2023-06-05T01:45:24;98247.97;;;17.54;43.49
550;BME280;20066;48.764;9.176;2023-06-05T01:47:52;98252.88;;;17.88;43.04
550;BME280;20066;48.764;9.176;2023-06-05T01:50:21;98246.44;;;17.82;43.22
550;BME280;20066;48.764;9.176;2023-06-05T01:52:49;98249.91;;;17.70;43.19
550;BME280;20066;48.764;9.176;2023-06-05T01:55:20;98254.03;;;17.75;43.41
550;BME280;20066;48.764;9.176;2023-06-05T01:57:52;98249.59;;;17.81;42.94
550;BME280;20066;48.764;9.176;2023-06-05T02:00:20;98248.69;;;17.10;44.59
550;BME280;20066;48.764;9.176;2023-06-05T02:02:48;98249.81;;;17.57;44.07
550;BME280;20066;48.764;9.176;2023-06-05T02:05:17;98256.59;;;17.65;43.62
550;BME280;20066;48.764;9.176;2023-06-05T02:07:47;98243.16;;;17.29;44.58
550;BME280;20066;48.764;9.176;2023-06-05T02:10:20;98244.16;;;17.03;45.01
550;BME280;20066;48.764;9.176;2023-06-05T02:12:48;98241.03;;;17.37;44.14
550;BME280;20066;48.764;9.176;2023-06-05T02:15:17;98246.00;;;17.55;43.66
550;BME280;20066;48.764;9.176;2023-06-05T02:17:45;98241.78;;;17.83;43.04
550;BME280;20066;48.764;9.176;2023-06-05T02:20:18;98244.69;;;17.30;44.23
550;BME280;20066;48.764;9.176;2023-06-05T02:22:47;98242.69;;;17.47;43.73
550;BME280;20066;48.764;9.176;2023-06-05T02:25:16;98237.22;;;17.18;44.49
550;BME280;20066;48.764;9.176;2023-06-05T02:27:44;98238.47;;;16.98;45.36
550;BME280;20066;48.764;9.176;2023-06-05T02:30:12;98249.66;;;16.67;45.86
550;BME280;20066;48.764;9.176;2023-06-05T02:32:42;98243.19;;;17.13;44.40
550;BME280;20066;48.764;9.176;2023-06-05T02:35:11;98241.47;;;17.36;44.00
550;BME280;20066;48.764;9.176;2023-06-05T02:37:39;98243.66;;;17.24;44.07
550;BME280;20066;48.764;9.176;2023-06-05T02:40:10;98248.47;;;17.49;43.48
550;BME280;20066;48.764;9.176;2023-06-05T02:42:39;98246.25;;;17.15;44.23
550;BME280;20066;48.764;9.176;2023-06-05T02:45:08;98249.19;;;16.36;46.48
550;BME280;20066;48.764;9.176;2023-06-05T02:47:37;98245.84;;;16.81;45.16
550;BME280;20066;48.764;9.176;2023-06-05T02:50:07;98237.53;;;16.72;45.66
550;BME280;20066;48.764;9.176;2023-06-05T02:52:35;98241.81;;;17.21;44.46
550;BME280;20066;48.764;9.176;2023-06-05T02:55:06;98244.09;;;16.90;44.81
550;BME280;20066;48.764;9.176;2023-06-05T02:57:34;98241.84;;;16.85;45.34
550;BME280;20066;48.764;9.176;2023-06-05T03:00:08;98244.25;;;16.83;45.34
550;BME280;20066;48.764;9.176;2023-06-05T03:02:36;98241.75;;;16.56;46.16
550;BME280;20066;48.764;9.176;2023-06-05T03:05:06;98240.50;;;16.77;45.77
550;BME280;20066;48.764;9.176;2023-06-05T03:07:35;98236.69;;;16.91;45.45
550;BME280;20066;48.764;9.176;2023-06-05T03:10:04;98242.41;;;17.13;44.88
550;BME280;20066;48.764;9.176;2023-06-05T03:12:32;98238.78;;;16.51;46.14
550;BME280;20066;48.764;9.176;2023-06-05T03:14:59;98241.28;;;16.42;46.60
550;BME280;20066;48.764;9.176;2023-06-05T03:17:29;98234.75;;;16.39;46.55
550;BME280;20066;48.764;9.176;2023-06-05T03:19:57;98240.25;;;16.88;45.37
550;BME280;20066;48.764;9.176;2023-06-05T03:22:26;98240.00;;;16.82;45.34
550;BME280;20066;48.764;9.176;2023-06-05T03:24:54;98234.13;;;16.68;45.89
550;BME280;20066;48.764;9.176;2023-06-05T03:27:22;98233.03;;;16.81;45.61
550;BME280;20066;48.764;9.176;2023-06-05T03:29:50;98237.53;;;17.04;45.04
550;BME280;20066;48.764;9.176;2023-06-05T03:32:18;98244.66;;;16.66;46.11
550;BME280;20066;48.764;9.176;2023-06-05T03:34:46;98250.00;;;16.69;45.77
550;BME280;20066;48.764;9.176;2023-06-05T03:37:15;98242.91;;;16.91;45.50
550;BME280;20066;48.764;9.176;2023-06-05T03:39:44;98251.56;;;17.19;44.70
550;BME280;20066;48.764;9.176;2023-06-05T03:42:12;98250.19;;;16.42;46.58
550;BME280;20066;48.764;9.176;2023-06-05T03:44:39;98247.81;;;16.80;45.67
550;BME280;20066;48.764;9.176;2023-06-05T03:47:07;98256.53;;;16.72;46.05
550;BME280;20066;48.764;9.176;2023-06-05T03:49:35;98255.06;;;16.31;46.99
550;BME280;20066;48.764;9.176;2023-06-05T03:52:04;98255.91;;;16.48;46.69
550;BME280;20066;48.764;9.176;2023-06-05T03:54:34;98255.97;;;15.65;48.62
550;BME280;20066;48.764;9.176;2023-06-05T03:57:04;98257.53;;;16.45;46.83
550;BME280;20066;48.764;9.176;2023-06-05T03:59:36;98259.38;;;16.48;46.57
550;BME280;20066;48.764;9.176;2023-06-05T04:02:04;98257.94;;;16.44;46.64
550;BME280;20066;48.764;9.176;2023-06-05T04:04:34;98260.72;;;16.76;45.76
550;BME280;20066;48.764;9.176;2023-06-05T04:07:02;98260.38;;;16.38;46.72
550;BME280;20066;48.764;9.176;2023-06-05T04:09:29;98267.38;;;16.55;46.79
550;BME280;20066;48.764;9.176;2023-06-05T04:11:58;98268.25;;;16.33;47.49
550;BME280;20066;48.764;9.176;2023-06-05T04:14:27;98266.97;;;16.73;46.07
550;BME280;20066;48.764;9.176;2023-06-05T04:16:55;98272.09;;;17.04;45.55
550;BME280;20066;48.764;9.176;2023-06-05T04:19:23;98268.41;;;17.14;45.04
550;BME280;20066;48.764;9.176;2023-06-05T04:21:50;98265.13;;;17.03;45.56
550;BME280;20066;48.764;9.176;2023-06-05T04:24:18;98269.88;;;16.82;46.11
550;BME280;20066;48.764;9.176;2023-06-05T04:26:46;98277.50;;;17.07;45.84
550;BME280;20066;48.764;9.176;2023-06-05T04:29:16;98278.94;;;17.12;45.42
550;BME280;20066;48.764;9.176;2023-06-05T04:31:46;98278.53;;;16.61;46.15
550;BME280;20066;48.764;9.176;2023-06-05T04:34:14;98277.50;;;16.71;46.82
550;BME280;20066;48.764;9.176;2023-06-05T04:36:45;98267.75;;;16.74;46.70
550;BME280;20066;48.764;9.176;2023-06-05T04:39:17;98271.25;;;16.90;46.01
550;BME280;20066;48.764;9.176;2023-06-05T04:41:46;98277.31;;;17.14;45.72
550;BME280;20066;48.764;9.176;2023-06-05T04:44:28;98276.56;;;17.46;44.88
550;BME280;20066;48.764;9.176;2023-06-05T04:46:58;98274.78;;;17.07;46.17
550;BME280;20066;48.764;9.176;2023-06-05T04:49:27;98277.16;;;17.38;45.33
550;BME280;20066;48.764;9.176;2023-06-05T04:51:55;98275.03;;;17.13;46.34
550;BME280;20066;48.764;9.176;2023-06-05T04:54:23;98272.13;;;17.20;45.92
550;BME280;20066;48.764;9.176;2023-06-05T04:56:51;98274.25;;;17.12;45.98
550;BME280;20066;48.764;9.176;2023-06-05T04:59:19;98269.97;;;17.60;44.88
550;BME280;20066;48.764;9.176;2023-06-05T05:01:47;98279.00;;;17.86;44.53
550;BME280;20066;48.764;9.176;2023-06-05T05:04:20;98271.66;;;17.70;44.90
550;BME280;20066;48.764;9.176;2023-06-05T05:06:48;98277.16;;;17.83;44.52
550;BME280;20066;48.764;9.176;2023-06-05T05:09:18;98274.00;;;18.13;44.23
550;BME280;20066;48.764;9.176;2023-06-05T05:11:46;98273.59;;;18.27;43.74
550;BME280;20066;48.764;9.176;2023-06-05T05:14:14;98278.66;;;18.41;43.72
550;BME280;20066;48.764;9.176;2023-06-05T05:16:42;98282.13;;;18.42;43.95
550;BME280;20066;48.764;9.176;2023-06-05T05:19:10;98277.91;;;18.54;43.68
550;BME280;20066;48.764;9.176;2023-06-05T05:21:39;98280.03;;;18.33;44.24
550;BME280;20066;48.764;9.176;2023-06-05T05:24:07;98286.00;;;18.70;43.21
550;BME280;20066;48.764;9.176;2023-06-05T05:26:36;98280.00;;;18.75;43.09
550;BME280;20066;48.764;9.176;2023-06-05T05:29:06;98274.09;;;18.64;43.15
550;BME280;20066;48.764;9.176;2023-06-05T05:31:34;98276.75;;;18.13;43.93
550;BME280;20066;48.764;9.176;2023-06-05T05:34:02;98280.59;;;18.41;44.01
550;BME280;20066;48.764;9.176;2023-06-05T05:36:30;98275.09;;;17.87;42.31
550;BME280;20066;48.764;9.176;2023-06-05T05:39:01;98279.53;;;18.38;41.54
550;BME280;20066;48.764;9.176;2023-06-05T05:41:29;98278.13;;;18.46;41.65
550;BME280;20066;48.764;9.176;2023-06-05T05:43:57;98286.28;;;18.05;42.43
550;BME280;20066;48.764;9.176;2023-06-05T05:46:25;98282.00;;;18.33;43.59
550;BME280;20066;48.764;9.176;2023-06-05T05:48:53;98282.47;;;18.57;43.03
550;BME280;20066;48.764;9.176;2023-06-05T05:51:21;98282.88;;;17.72;44.73
550;BME280;20066;48.764;9.176;2023-06-05T05:53:49;98279.41;;;18.42;42.91
550;BME280;20066;48.764;9.176;2023-06-05T05:56:19;98286.75;;;18.83;42.43
550;BME280;20066;48.764;9.176;2023-06-05T05:58:46;98286.78;;;19.08;42.73
550;BME280;20066;48.764;9.176;2023-06-05T06:01:14;98287.47;;;18.04;42.44
550;BME280;20066;48.764;9.176;2023-06-05T06:03:42;98289.09;;;18.01;42.59
550;BME280;20066;48.764;9.176;2023-06-05T06:06:11;98296.13;;;18.82;41.50
550;BME280;20066;48.764;9.176;2023-06-05T06:08:38;98288.59;;;18.61;41.38
550;BME280;20066;48.764;9.176;2023-06-05T06:11:06;98288.41;;;19.06;41.06
550;BME280;20066;48.764;9.176;2023-06-05T06:13:37;98285.22;;;19.20;40.13
550;BME280;20066;48.764;9.176;2023-06-05T06:16:06;98285.72;;;18.93;40.53
550;BME280;20066;48.764;9.176;2023-06-05T06:18:34;98275.84;;;18.58;40.88
550;BME280;20066;48.764;9.176;2023-06-05T06:21:02;98290.47;;;19.14;40.00
550;BME280;20066;48.764;9.176;2023-06-05T06:23:31;98286.84;;;18.79;41.28
550;BME280;20066;48.764;9.176;2023-06-05T06:25:59;98277.88;;;19.42;41.03
550;BME280;20066;48.764;9.176;2023-06-05T06:28:27;98290.75;;;19.42;39.67
550;BME280;20066;48.764;9.176;2023-06-05T06:30:56;98292.91;;;19.00;40.67
550;BME280;20066;48.764;9.176;2023-06-05T06:33:24;98291.41;;;18.57;41.33
550;BME280;20066;48.764;9.176;2023-06-05T06:35:52;98295.38;;;18.94;40.41
550;BME280;20066;48.764;9.176;2023-06-05T06:38:20;98290.22;;;18.45;42.03
550;BME280;20066;48.764;9.176;2023-06-05T06:40:50;98297.00;;;18.79;41.90
550;BME280;20066;48.764;9.176;2023-06-05T06:43:18;98297.13;;;18.88;40.92
550;BME280;20066;48.764;9.176;2023-06-05T06:45:46;98291.78;;;19.10;40.53
550;BME280;20066;48.764;9.176;2023-06-05T06:48:15;98301.41;;;19.02;39.72
550;BME280;20066;48.764;9.176;2023-06-05T06:50:45;98295.72;;;19.21;39.41
550;BME280;20066;48.764;9.176;2023-06-05T06:53:13;98294.47;;;19.35;38.72
550;BME280;20066;48.764;9.176;2023-06-05T06:55:41;98295.72;;;18.96;39.21
550;BME280;20066;48.764;9.176;2023-06-05T06:58:09;98289.38;;;19.72;37.87
550;BME280;20066;48.764;9.176;2023-06-05T07:00:37;98289.13;;;20.13;36.83
550;BME280;20066;48.764;9.176;2023-06-05T07:03:07;98288.66;;;20.36;37.08
550;BME280;20066;48.764;9.176;2023-06-05T07:05:37;98284.94;;;19.52;39.37
550;BME280;20066;48.764;9.176;2023-06-05T07:08:04;98297.66;;;19.21;38.97
550;BME280;20066;48.764;9.176;2023-06-05T07:10:33;98286.63;;;19.84;38.01
550;BME280;20066;48.764;9.176;2023-06-05T07:13:01;98285.75;;;20.09;37.49
550;BME280;20066;48.764;9.176;2023-06-05T07:15:29;98293.44;;;20.23;37.59
550;BME280;20066;48.764;9.176;2023-06-05T07:17:57;98294.78;;;21.02;36.26
550;BME280;20066;48.764;9.176;2023-06-05T07:20:24;98292.19;;;21.48;35.80
550;BME280;20066;48.764;9.176;2023-06-05T07:22:54;98291.59;;;21.13;36.20
550;BME280;20066;48.764;9.176;2023-06-05T07:25:23;98285.19;;;21.74;35.09
550;BME280;20066;48.764;9.176;2023-06-05T07:27:51;98288.34;;;21.36;36.18
550;BME280;20066;48.764;9.176;2023-06-05T07:30:19;98288.38;;;20.65;37.92
550;BME280;20066;48.764;9.176;2023-06-05T07:32:47;98282.91;;;21.82;36.53
550;BME280;20066;48.764;9.176;2023-06-05T07:35:15;98292.66;;;21.83;36.38
550;BME280;20066;48.764;9.176;2023-06-05T07:37:43;98289.75;;;21.41;37.13
550;BME280;20066;48.764;9.176;2023-06-05T07:40:12;98281.47;;;20.52;38.58
550;BME280;20066;48.764;9.176;2023-06-05T07:42:40;98281.63;;;20.48;39.06
550;BME280;20066;48.764;9.176;2023-06-05T07:45:09;98285.22;;;21.07;38.80
550;BME280;20066;48.764;9.176;2023-06-05T07:47:37;98287.31;;;22.34;37.12
550;BME280;20066;48.764;9.176;2023-06-05T07:50:06;98285.97;;;22.20;36.24
550;BME280;20066;48.764;9.176;2023-06-05T07:52:35;98269.34;;;22.42;37.92
550;BME280;20066;48.764;9.176;2023-06-05T07:55:04;98273.28;;;23.73;33.78
550;BME280;20066;48.764;9.176;2023-06-05T07:57:34;98271.81;;;21.49;37.06
550;BME280;20066;48.764;9.176;2023-06-05T08:00:04;98278.50;;;23.47;34.19
550;BME280;20066;48.764;9.176;2023-06-05T08:02:37;98274.53;;;23.39;34.85
550;BME280;20066;48.764;9.176;2023-06-05T08:05:06;98283.50;;;23.25;35.98
550;BME280;20066;48.764;9.176;2023-06-05T08:07:35;98270.91;;;21.70;37.33
550;BME280;20066;48.764;9.176;2023-06-05T08:10:03;98269.44;;;22.57;37.39
550;BME280;20066;48.764;9.176;2023-06-05T08:12:31;98268.53;;;24.27;34.25
550;BME280;20066;48.764;9.176;2023-06-05T08:15:01;98262.84;;;24.30;35.14
550;BME280;20066;48.764;9.176;2023-06-05T08:17:29;98269.81;;;24.02;34.35
550;BME280;20066;48.764;9.176;2023-06-05T08:19:57;98272.13;;;23.08;36.43
550;BME280;20066;48.764;9.176;2023-06-05T08:22:25;98268.63;;;23.40;36.09
550;BME280;20066;48.764;9.176;2023-06-05T08:24:53;98270.06;;;23.27;36.85
550;BME280;20066;48.764;9.176;2023-06-05T08:27:22;98262.56;;;24.28;35.55
550;BME280;20066;48.764;9.176;2023-06-05T08:29:50;98269.25;;;24.71;34.89
550;BME280;20066;48.764;9.176;2023-06-05T08:32:19;98262.44;;;25.51;33.21
550;BME280;20066;48.764;9.176;2023-06-05T08:34:48;98264.31;;;24.02;36.14
550;BME280;20066;48.764;9.176;2023-06-05T08:37:16;98262.25;;;24.55;35.10
550;BME280;20066;48.764;9.176;2023-06-05T08:39:44;98253.06;;;25.08;34.46
550;BME280;20066;48.764;9.176;2023-06-05T08:42:13;98256.69;;;24.35;34.86
550;BME280;20066;48.764;9.176;2023-06-05T08:44:46;98272.09;;;23.17;38.57
550;BME280;20066;48.764;9.176;2023-06-05T08:47:29;98260.38;;;23.64;37.93
550;BME280;20066;48.764;9.176;2023-06-05T08:50:02;98259.09;;;22.52;39.65
550;BME280;20066;48.764;9.176;2023-06-05T08:52:33;98260.59;;;24.43;37.35
550;BME280;20066;48.764;9.176;2023-06-05T08:55:03;98257.78;;;24.73;35.86
550;BME280;20066;48.764;9.176;2023-06-05T08:57:31;98253.81;;;24.74;35.74
550;BME280;20066;48.764;9.176;2023-06-05T09:00:01;98261.59;;;26.12;34.64
550;BME280;20066;48.764;9.176;2023-06-05T09:02:36;98253.59;;;25.67;35.26
550;BME280;20066;48.764;9.176;2023-06-05T09:05:05;98249.84;;;25.30;35.25
550;BME280;20066;48.764;9.176;2023-06-05T09:07:33;98245.19;;;24.81;36.75
550;BME280;20066;48.764;9.176;2023-06-05T09:10:01;98253.25;;;26.32;35.66
550;BME280;20066;48.764;9.176;2023-06-05T09:12:30;98250.03;;;24.56;37.10
550;BME280;20066;48.764;9.176;2023-06-05T09:14:59;98244.78;;;26.10;35.07
550;BME280;20066;48.764;9.176;2023-06-05T09:17:27;98242.56;;;25.47;36.28
550;BME280;20066;48.764;9.176;2023-06-05T09:19:56;98254.00;;;24.55;36.95
550;BME280;20066;48.764;9.176;2023-06-05T09:22:32;98244.78;;;25.63;35.32
550;BME280;20066;48.764;9.176;2023-06-05T09:25:01;98256.19;;;26.86;33.12
550;BME280;20066;48.764;9.176;2023-06-05T09:27:29;98246.78;;;27.46;35.26
550;BME280;20066;48.764;9.176;2023-06-05T09:30:03;98244.97;;;28.13;31.44
550;BME280;20066;48.764;9.176;2023-06-05T09:32:32;98232.63;;;25.15;35.11
550;BME280;20066;48.764;9.176;2023-06-05T09:35:01;98232.63;;;25.15;36.19
550;BME280;20066;48.764;9.176;2023-06-05T09:37:33;98233.38;;;25.76;35.14
550;BME280;20066;48.764;9.176;2023-06-05T09:40:03;98241.28;;;26.66;33.30
550;BME280;20066;48.764;9.176;2023-06-05T09:42:32;98233.97;;;25.60;35.31
550;BME280;20066;48.764;9.176;2023-06-05T09:45:02;98230.22;;;26.09;34.44
550;BME280;20066;48.764;9.176;2023-06-05T09:47:31;98237.41;;;25.35;35.40
550;BME280;20066;48.764;9.176;2023-06-05T09:50:23;98239.53;;;27.06;32.60
550;BME280;20066;48.764;9.176;2023-06-05T09:52:52;98237.78;;;25.68;34.80
550;BME280;20066;48.764;9.176;2023-06-05T09:55:23;98221.94;;;26.35;35.15
550;BME280;20066;48.764;9.176;2023-06-05T09:57:56;98215.41;;;25.81;35.61
550;BME280;20066;48.764;9.176;2023-06-05T10:00:30;98218.09;;;25.75;35.95
550;BME280;20066;48.764;9.176;2023-06-05T10:02:59;98206.69;;;25.88;35.86
550;BME280;20066;48.764;9.176;2023-06-05T10:05:32;98218.88;;;26.64;34.60
550;BME280;20066;48.764;9.176;2023-06-05T10:08:02;98224.16;;;27.47;32.66
550;BME280;20066;48.764;9.176;2023-06-05T10:10:30;98210.94;;;25.02;35.71
550;BME280;20066;48.764;9.176;2023-06-05T10:12:58;98214.38;;;24.33;36.99
550;BME280;20066;48.764;9.176;2023-06-05T10:15:28;98213.59;;;25.78;34.76
550;BME280;20066;48.764;9.176;2023-06-05T10:17:59;98206.69;;;26.76;33.24
550;BME280;20066;48.764;9.176;2023-06-05T10:20:29;98214.31;;;26.93;32.31
550;BME280;20066;48.764;9.176;2023-06-05T10:22:57;98214.59;;;26.26;32.45
550;BME280;20066;48.764;9.176;2023-06-05T10:25:26;98202.22;;;26.16;32.87
550;BME280;20066;48.764;9.176;2023-06-05T10:28:05;98199.13;;;25.37;34.43
550;BME280;20066;48.764;9.176;2023-06-05T10:31:10;98203.31;;;25.12;34.00
550;BME280;20066;48.764;9.176;2023-06-05T10:34:01;98214.53;;;28.13;29.54
550;BME280;20066;48.764;9.176;2023-06-05T10:36:45;98212.69;;;25.86;30.54
550;BME280;20066;48.764;9.176;2023-06-05T10:39:17;98214.44;;;27.15;29.48
550;BME280;20066;48.764;9.176;2023-06-05T10:41:45;98219.47;;;27.81;28.15
550;BME280;20066;48.764;9.176;2023-06-05T10:44:17;98201.91;;;27.14;28.84
550;BME280;20066;48.764;9.176;2023-06-05T10:46:45;98206.63;;;26.34;29.60
550;BME280;20066;48.764;9.176;2023-06-05T10:49:14;98208.47;;;25.24;30.62
550;BME280;20066;48.764;9.176;2023-06-05T10:51:46;98199.38;;;26.05;29.61
550;BME280;20066;48.764;9.176;2023-06-05T10:54:53;98209.09;;;30.20;25.45
550;BME280;20066;48.764;9.176;2023-06-05T10:57:22;98197.56;;;27.67;26.99
550;BME280;20066;48.764;9.176;2023-06-05T11:00:05;98197.63;;;29.53;25.25
550;BME280;20066;48.764;9.176;2023-06-05T11:02:46;98195.38;;;28.71;24.95
550;BME280;20066;48.764;9.176;2023-06-05T11:05:14;98198.88;;;27.12;27.19
550;BME280;20066;48.764;9.176;2023-06-05T11:07:44;98200.78;;;26.95;29.93
550;BME280;20066;48.764;9.176;2023-06-05T11:10:14;98195.91;;;28.53;25.36
550;BME280;20066;48.764;9.176;2023-06-05T11:12:58;98194.19;;;29.35;23.82
550;BME280;20066;48.764;9.176;2023-06-05T11:15:41;98197.41;;;32.82;21.28
550;BME280;20066;48.764;9.176;2023-06-05T11:18:34;98191.22;;;32.12;21.50
550;BME280;20066;48.764;9.176;2023-06-05T11:21:03;98185.84;;;29.88;23.44
550;BME280;20066;48.764;9.176;2023-06-05T11:23:32;98188.22;;;31.16;21.55
550;BME280;20066;48.764;9.176;2023-06-05T11:26:38;98195.31;;;30.93;23.15
550;BME280;20066;48.764;9.176;2023-06-05T11:29:15;98190.19;;;30.78;22.29
550;BME280;20066;48.764;9.176;2023-06-05T11:31:45;98189.31;;;29.99;23.02
550;BME280;20066;48.764;9.176;2023-06-05T11:34:17;98180.44;;;29.13;23.99
550;BME280;20066;48.764;9.176;2023-06-05T11:36:45;98177.50;;;31.26;21.77
550;BME280;20066;48.764;9.176;2023-06-05T11:39:15;98172.22;;;34.36;18.38
550;BME280;20066;48.764;9.176;2023-06-05T11:41:44;98169.94;;;33.12;19.41
550;BME280;20066;48.764;9.176;2023-06-05T11:44:13;98165.50;;;32.51;20.25
550;BME280;20066;48.764;9.176;2023-06-05T11:46:43;98180.19;;;32.06;21.11
550;BME280;20066;48.764;9.176;2023-06-05T11:49:23;98161.94;;;30.44;22.24
550;BME280;20066;48.764;9.176;2023-06-05T11:51:52;98164.94;;;31.19;22.34
550;BME280;20066;48.764;9.176;2023-06-05T11:54:25;98163.47;;;30.15;22.61
550;BME280;20066;48.764;9.176;2023-06-05T11:56:58;98165.09;;;30.00;23.16
550;BME280;20066;48.764;9.176;2023-06-05T11:59:28;98167.47;;;29.32;24.68
550;BME280;20066;48.764;9.176;2023-06-05T12:01:56;98168.81;;;30.68;22.10
550;BME280;20066;48.764;9.176;2023-06-05T12:04:24;98170.63;;;31.08;22.02
550;BME280;20066;48.764;9.176;2023-06-05T12:06:53;98166.03;;;34.30;18.86
550;BME280;20066;48.764;9.176;2023-06-05T12:09:22;98165.88;;;34.57;17.82
550;BME280;20066;48.764;9.176;2023-06-05T12:11:52;98151.97;;;31.46;21.04
550;BME280;20066;48.764;9.176;2023-06-05T12:14:31;98162.91;;;28.77;23.65
550;BME280;20066;48.764;9.176;2023-06-05T12:16:59;98153.25;;;31.45;20.94
550;BME280;20066;48.764;9.176;2023-06-05T12:19:29;98151.34;;;32.04;20.42
550;BME280;20066;48.764;9.176;2023-06-05T12:22:05;98146.81;;;34.06;18.26
550;BME280;20066;48.764;9.176;2023-06-05T12:24:33;98139.31;;;35.07;17.92
550;BME280;20066;48.764;9.176;2023-06-05T12:27:03;98145.81;;;32.62;19.47
550;BME280;20066;48.764;9.176;2023-06-05T12:29:35;98140.28;;;29.31;23.14
550;BME280;20066;48.764;9.176;2023-06-05T12:32:20;98145.16;;;26.70;25.69
550;BME280;20066;48.764;9.176;2023-06-05T12:34:49;98140.19;;;27.34;24.76
550;BME280;20066;48.764;9.176;2023-06-05T12:37:22;98138.47;;;28.76;22.79
550;BME280;20066;48.764;9.176;2023-06-05T12:39:50;98142.03;;;34.92;18.05
550;BME280;20066;48.764;9.176;2023-06-05T12:42:20;98141.81;;;35.69;17.03
550;BME280;20066;48.764;9.176;2023-06-05T12:44:48;98136.69;;;32.62;18.82
550;BME280;20066;48.764;9.176;2023-06-05T12:47:16;98138.69;;;36.41;15.83
550;BME280;20066;48.764;9.176;2023-06-05T12:49:45;98119.25;;;31.33;20.33
550;BME280;20066;48.764;9.176;2023-06-05T12:52:13;98121.81;;;32.85;18.73
550;BME280;20066;48.764;9.176;2023-06-05T12:54:41;98124.16;;;34.95;17.72
550;BME280;20066;48.764;9.176;2023-06-05T12:57:09;98117.44;;;38.06;15.08
550;BME280;20066;48.764;9.176;2023-06-05T12:59:40;98123.19;;;35.28;17.08
550;BME280;20066;48.764;9.176;2023-06-05T13:02:08;98126.91;;;31.09;19.74
550;BME280;20066;48.764;9.176;2023-06-05T13:04:37;98127.53;;;30.53;20.76
550;BME280;20066;48.764;9.176;2023-06-05T13:07:05;98121.38;;;32.68;18.75
550;BME280;20066;48.764;9.176;2023-06-05T13:09:33;98126.50;;;31.18;19.26
550;BME280;20066;48.764;9.176;2023-06-05T13:12:01;98119.56;;;33.44;17.63
550;BME280;20066;48.764;9.176;2023-06-05T13:14:30;98128.31;;;36.97;14.89
550;BME280;20066;48.764;9.176;2023-06-05T13:17:00;98116.81;;;36.02;15.96
550;BME280;20066;48.764;9.176;2023-06-05T13:19:28;98124.25;;;38.20;14.13
550;BME280;20066;48.764;9.176;2023-06-05T13:21:56;98116.88;;;39.18;12.21
550;BME280;20066;48.764;9.176;2023-06-05T13:24:24;98117.56;;;36.55;14.40
550;BME280;20066;48.764;9.176;2023-06-05T13:26:52;98102.53;;;32.88;17.46
550;BME280;20066;48.764;9.176;2023-06-05T13:29:21;98097.91;;;31.92;18.59
550;BME280;20066;48.764;9.176;2023-06-05T13:31:49;98097.00;;;31.71;19.02
550;BME280;20066;48.764;9.176;2023-06-05T13:34:18;98093.91;;;31.56;18.88
550;BME280;20066;48.764;9.176;2023-06-05T13:36:46;98081.03;;;30.05;20.30